Time;durP1;ratioP1;P1;durP2;ratioP2;P2;SDS_P1;SDS_P2;PMS_P1;PMS_P2;Temp;Humidity;BMP_temperature;BMP_pressure;BME280_temperature;BME280_humidity;BME280_pressure;Samples;Min_cycle;Max_cycle;Signal;HPM_P1;HPM_P2
2022/07/08 00:01:54;;;;;;;;;4.00;3.00;;;;;19.41;75.71;102787.88;5098364;27;45239;-88
2022/07/08 00:04:20;;;;;;;;;4.25;2.00;;;;;19.36;75.94;102781.56;5100828;27;45355;-87
2022/07/08 00:06:46;;;;;;;;;5.00;2.00;;;;;19.31;76.32;102777.84;5101776;27;45603;-86
2022/07/08 00:09:11;;;;;;;;;3.00;2.00;;;;;19.23;76.62;102793.28;5104969;27;46286;-86
2022/07/08 00:11:37;;;;;;;;;2.25;1.00;;;;;19.10;76.56;102791.88;5097842;27;45430;-87
2022/07/08 00:14:03;;;;;;;;;3.00;3.00;;;;;19.05;77.08;102797.78;5097376;27;45404;-87
2022/07/08 00:16:29;;;;;;;;;3.00;2.00;;;;;19.01;77.46;102794.13;5097643;27;45550;-87
2022/07/08 00:18:55;;;;;;;;;4.00;2.25;;;;;18.95;78.10;102780.78;5097059;27;45965;-87
2022/07/08 00:21:20;;;;;;;;;3.00;3.00;;;;;18.97;77.65;102786.94;5097455;27;45227;-87
2022/07/08 00:23:47;;;;;;;;;3.75;2.25;;;;;18.96;77.54;102787.78;5097441;27;45298;-87
2022/07/08 00:26:13;;;;;;;;;4.00;2.00;;;;;18.94;77.97;102792.97;5098012;27;45540;-87
2022/07/08 00:28:38;;;;;;;;;4.00;2.25;;;;;18.90;77.65;102793.63;5097413;27;46914;-87
2022/07/08 00:31:04;;;;;;;;;2.25;1.50;;;;;18.83;78.36;102792.50;5078889;27;45426;-87
2022/07/08 00:33:30;;;;;;;;;2.25;2.00;;;;;18.79;78.26;102785.31;5100175;27;45314;-87
2022/07/08 00:35:55;;;;;;;;;2.25;2.00;;;;;18.77;78.81;102776.47;5103961;27;45417;-88
2022/07/08 00:38:21;;;;;;;;;2.50;1.50;;;;;18.72;78.61;102775.41;5098210;27;45882;-87
2022/07/08 00:40:46;;;;;;;;;6.00;2.00;;;;;18.69;79.10;102778.78;5096792;27;45410;-87
2022/07/08 00:43:47;;;;;;;;;3.50;1.75;;;;;18.66;79.70;102773.41;5097521;27;45450;-87
2022/07/08 00:46:15;;;;;;;;;1.75;1.75;;;;;18.58;79.81;102784.41;4994076;28;45292;-87
2022/07/08 00:48:41;;;;;;;;;3.00;2.25;;;;;18.52;80.46;102775.41;5077283;27;45303;-87
2022/07/08 00:51:10;;;;;;;;;2.00;2.00;;;;;18.51;80.25;102781.53;5096891;27;45397;-87
2022/07/08 00:53:38;;;;;;;;;3.00;2.00;;;;;18.50;80.54;102784.97;5079020;27;45232;-84
2022/07/08 00:56:04;;;;;;;;;1.50;1.00;;;;;18.48;79.80;102794.50;5097385;27;45198;-86
2022/07/08 00:58:32;;;;;;;;;2.00;2.00;;;;;18.50;79.93;102794.56;5097177;27;45503;-88
2022/07/08 01:00:58;;;;;;;;;1.50;1.25;;;;;18.50;79.56;102800.72;5102973;27;45808;-87
2022/07/08 01:03:23;;;;;;;;;3.50;1.75;;;;;18.48;79.52;102793.59;5101608;27;45360;-87
2022/07/08 01:05:49;;;;;;;;;2.00;2.00;;;;;18.37;78.68;102790.50;5097797;27;45197;-86
2022/07/08 01:08:15;;;;;;;;;1.00;1.00;;;;;18.34;79.12;102793.88;5097678;27;45329;-86
2022/07/08 01:10:40;;;;;;;;;1.00;1.00;;;;;18.33;78.98;102791.19;5097165;27;45259;-87
2022/07/08 01:13:06;;;;;;;;;2.75;2.00;;;;;18.33;78.82;102796.44;5096798;27;45232;-88
2022/07/08 01:15:33;;;;;;;;;3.50;1.75;;;;;18.33;78.74;102796.44;5097431;27;45463;-87
2022/07/08 01:17:59;;;;;;;;;3.00;2.00;;;;;18.32;78.90;102803.41;5078503;27;47435;-88
2022/07/08 01:20:25;;;;;;;;;1.50;1.50;;;;;18.33;78.20;102809.53;5100997;27;45322;-87
2022/07/08 01:22:51;;;;;;;;;2.00;2.00;;;;;18.35;77.54;102813.13;5098928;27;45386;-87
2022/07/08 01:25:17;;;;;;;;;2.00;2.00;;;;;18.36;77.05;102821.06;5099413;27;45421;-87
2022/07/08 01:27:43;;;;;;;;;2.25;1.25;;;;;18.38;76.56;102810.66;5105422;27;45349;-86
2022/07/08 01:30:09;;;;;;;;;1.50;1.50;;;;;18.39;76.32;102823.81;5100580;27;45378;-86
2022/07/08 01:32:38;;;;;;;;;2.00;0.75;;;;;18.38;76.44;102826.38;5097699;27;45312;-85
2022/07/08 01:35:04;;;;;;;;;3.00;1.75;;;;;18.38;75.54;102827.28;5096595;27;45272;-87
2022/07/08 01:37:30;;;;;;;;;1.00;1.00;;;;;18.38;75.49;102832.50;5096612;27;46470;-88
2022/07/08 01:39:56;;;;;;;;;2.00;1.00;;;;;18.34;75.45;102834.94;5096238;27;45456;-87
2022/07/08 01:42:22;;;;;;;;;1.00;1.00;;;;;18.32;75.46;102845.38;5096545;27;45380;-88
2022/07/08 01:44:47;;;;;;;;;2.00;1.00;;;;;18.29;75.39;102839.09;5096553;27;45576;-85
2022/07/08 01:47:13;;;;;;;;;3.50;2.00;;;;;18.25;75.61;102841.56;5096796;27;45937;-85
2022/07/08 01:49:39;;;;;;;;;2.00;1.25;;;;;18.28;75.60;102842.53;5096866;27;45277;-86
2022/07/08 01:52:06;;;;;;;;;2.00;1.00;;;;;18.26;75.45;102834.59;5096345;27;45196;-88
2022/07/08 01:54:32;;;;;;;;;1.25;1.25;;;;;18.23;75.92;102834.47;5103150;27;45240;-82
2022/07/08 01:57:14;;;;;;;;;1.50;1.00;;;;;18.20;76.11;102822.09;5100559;27;46428;-88
2022/07/08 01:59:43;;;;;;;;;2.75;1.25;;;;;18.18;76.63;102825.47;5100469;27;45230;-87
2022/07/08 02:02:10;;;;;;;;;1.25;1.25;;;;;18.17;76.72;102818.44;5100398;27;45647;-84
2022/07/08 02:04:36;;;;;;;;;3.00;1.00;;;;;18.17;76.78;102818.44;5102540;27;45643;-87
2022/07/08 02:07:02;;;;;;;;;3.50;2.00;;;;;18.15;77.03;102826.25;5105920;27;45442;-86
2022/07/08 02:09:28;;;;;;;;;1.50;1.50;;;;;18.11;76.99;102829.53;5101382;27;45345;-87
2022/07/08 02:14:38;;;;;;;;;2.50;1.00;;;;;18.05;78.07;102827.53;5100074;27;45302;-87
2022/07/08 02:17:03;;;;;;;;;1.25;1.25;;;;;18.01;78.82;102832.56;5099964;27;46071;-88
2022/07/08 02:19:29;;;;;;;;;1.00;1.00;;;;;18.00;78.97;102836.00;5104731;27;45352;-87
2022/07/08 02:21:55;;;;;;;;;3.25;1.00;;;;;17.99;78.92;102829.88;5106484;27;45339;-86
2022/07/08 02:24:21;;;;;;;;;4.00;2.00;;;;;18.00;79.48;102831.69;5103326;27;45165;-88
2022/07/08 02:26:46;;;;;;;;;3.50;2.00;;;;;17.98;79.45;102821.94;5099979;27;45846;-87
2022/07/08 02:29:12;;;;;;;;;4.00;2.25;;;;;17.92;79.22;102815.56;5100241;27;45436;-87
2022/07/08 02:31:38;;;;;;;;;1.50;1.50;;;;;17.88;80.16;102821.47;5101569;27;45243;-88
2022/07/08 02:34:04;;;;;;;;;3.00;2.00;;;;;17.86;80.68;102828.38;5082458;27;45912;-86
2022/07/08 02:36:30;;;;;;;;;1.75;1.00;;;;;17.86;80.88;102822.22;5081648;27;46909;-87
2022/07/08 02:38:56;;;;;;;;;2.75;1.25;;;;;17.82;81.46;102821.19;5099670;27;45350;-87
2022/07/08 02:41:21;;;;;;;;;4.75;3.25;;;;;17.82;81.04;102825.53;5099501;27;45289;-86
2022/07/08 02:43:47;;;;;;;;;3.50;3.50;;;;;17.79;81.09;102816.72;5099117;27;45466;-87
2022/07/08 02:46:13;;;;;;;;;1.00;1.00;;;;;17.79;81.61;102814.09;5101580;27;45321;-88
2022/07/08 02:48:39;;;;;;;;;2.75;1.75;;;;;17.83;81.73;102816.84;5105693;27;45400;-87
2022/07/08 02:51:05;;;;;;;;;2.75;2.25;;;;;17.82;81.71;102820.31;5101646;27;45237;-87
2022/07/08 02:53:30;;;;;;;;;1.00;1.00;;;;;17.76;81.82;102813.06;5099446;27;45561;-87
2022/07/08 02:55:56;;;;;;;;;3.00;1.75;;;;;17.71;82.41;102809.31;5080162;27;46391;-88
2022/07/08 02:58:22;;;;;;;;;1.25;1.00;;;;;17.69;82.54;102811.84;5099249;27;45241;-87
2022/07/08 03:00:47;;;;;;;;;2.75;1.50;;;;;17.69;83.11;102827.56;5098771;27;45247;-88
2022/07/08 03:03:13;;;;;;;;;3.50;2.50;;;;;17.66;82.88;102822.19;5099160;27;45218;-88
2022/07/08 03:05:38;;;;;;;;;1.00;1.00;;;;;17.63;82.92;102825.56;5098656;27;45838;-88
2022/07/08 03:08:04;;;;;;;;;1.25;1.25;;;;;17.60;83.63;102820.16;5097473;27;45318;-89
2022/07/08 03:10:30;;;;;;;;;2.00;1.25;;;;;17.58;84.03;102821.81;5098958;27;45435;-88
2022/07/08 03:12:55;;;;;;;;;3.00;1.00;;;;;17.51;84.29;102827.59;5100900;27;45307;-87
2022/07/08 03:15:21;;;;;;;;;2.25;2.25;;;;;17.47;84.67;102829.16;5106931;27;46494;-86
2022/07/08 03:17:47;;;;;;;;;5.50;3.00;;;;;17.40;84.91;102824.44;5099221;27;45380;-87
2022/07/08 03:20:12;;;;;;;;;3.50;1.00;;;;;17.39;85.14;102821.75;5098832;27;45380;-87
2022/07/08 03:22:38;;;;;;;;;2.75;2.00;;;;;17.37;85.38;102826.91;5098584;27;45628;-86
2022/07/08 03:25:04;;;;;;;;;1.00;1.00;;;;;17.38;85.86;102830.41;5097861;27;45317;-86
2022/07/08 03:27:30;;;;;;;;;6.25;1.25;;;;;17.38;85.70;102839.19;5098224;27;45227;-86
2022/07/08 03:29:55;;;;;;;;;1.75;1.50;;;;;17.39;85.74;102858.41;5098011;27;45248;-86
2022/07/08 03:32:23;;;;;;;;;2.50;2.00;;;;;17.35;86.13;102849.50;5098663;27;45218;-84
2022/07/08 03:34:49;;;;;;;;;2.75;2.50;;;;;17.35;86.19;102845.97;5098340;27;45832;-86
2022/07/08 03:37:14;;;;;;;;;2.75;2.75;;;;;17.34;86.47;102852.94;5098379;27;45369;-86
2022/07/08 03:39:40;;;;;;;;;3.25;2.00;;;;;17.28;86.11;102848.28;5080763;27;45383;-84
2022/07/08 03:42:06;;;;;;;;;2.00;2.00;;;;;17.26;87.09;102852.56;5103919;27;45571;-82
2022/07/08 03:44:31;;;;;;;;;1.50;1.50;;;;;17.23;86.86;102860.25;5099467;27;46108;-79
2022/07/08 03:46:57;;;;;;;;;4.00;2.25;;;;;17.18;87.34;102846.91;5079980;27;45412;-84
2022/07/08 03:49:23;;;;;;;;;2.00;2.00;;;;;17.19;87.86;102853.06;5098183;27;45381;-87
2022/07/08 03:51:48;;;;;;;;;3.00;2.00;;;;;17.17;87.74;102852.09;5098453;27;45450;-87
2022/07/08 03:54:14;;;;;;;;;1.00;1.00;;;;;17.17;88.12;102852.09;5098355;27;45896;-79
2022/07/08 03:56:39;;;;;;;;;2.00;2.00;;;;;17.13;88.05;102861.50;5098017;27;45508;-86
2022/07/08 03:59:05;;;;;;;;;2.00;2.00;;;;;17.13;88.51;102858.91;5097567;27;45227;-85
2022/07/08 04:01:30;;;;;;;;;4.00;2.00;;;;;17.10;88.45;102861.34;5098107;27;45513;-85
2022/07/08 04:03:56;;;;;;;;;3.00;2.00;;;;;17.04;89.18;102860.13;5097520;27;45989;-87
2022/07/08 04:06:22;;;;;;;;;4.75;2.00;;;;;17.02;89.26;102863.56;5098210;27;45340;-87
2022/07/08 04:08:48;;;;;;;;;3.00;2.00;;;;;17.02;88.96;102857.44;5104308;27;45231;-86
2022/07/08 04:11:13;;;;;;;;;2.25;2.25;;;;;17.06;89.15;102855.88;5103269;27;45623;-87
2022/07/08 04:13:39;;;;;;;;;3.25;2.75;;;;;17.11;88.89;102863.16;5098328;27;45390;-88
2022/07/08 04:16:08;;;;;;;;;3.00;2.00;;;;;17.08;88.44;102856.88;5097380;27;45367;-86
2022/07/08 04:18:33;;;;;;;;;4.00;2.00;;;;;17.14;88.68;102865.00;5097442;27;45553;-87
2022/07/08 04:20:59;;;;;;;;;2.50;2.00;;;;;17.14;88.36;102852.84;5097368;27;45362;-86
2022/07/08 04:23:25;;;;;;;;;4.50;2.00;;;;;17.18;88.39;102856.50;5097380;27;46371;-85
2022/07/08 04:25:50;;;;;;;;;2.25;2.25;;;;;17.24;88.34;102854.19;5097065;27;45424;-86
2022/07/08 04:28:16;;;;;;;;;0.00;0.00;;;;;17.31;87.57;102858.94;5097562;27;45380;-85
2022/07/08 04:30:42;;;;;;;;;2.00;2.00;;;;;17.31;87.65;102856.31;5079512;27;45410;-85
2022/07/08 04:33:08;;;;;;;;;3.50;2.75;;;;;17.37;87.27;102855.72;5097034;27;45902;-86
2022/07/08 04:35:35;;;;;;;;;4.25;3.00;;;;;17.39;86.78;102863.63;5101722;27;45256;-86
2022/07/08 04:38:01;;;;;;;;;2.50;2.25;;;;;17.40;87.05;102863.69;5102300;27;45396;-86
2022/07/08 04:40:27;;;;;;;;;5.00;2.00;;;;;17.44;86.84;102868.28;5098525;27;45578;-86
2022/07/08 04:42:53;;;;;;;;;4.00;4.00;;;;;17.44;86.69;102868.28;5096746;27;45422;-87
2022/07/08 04:45:18;;;;;;;;;2.00;2.00;;;;;17.45;86.95;102880.56;5097282;27;45484;-86
2022/07/08 04:47:44;;;;;;;;;4.00;2.50;;;;;17.46;87.12;102886.69;5096812;27;45425;-82
2022/07/08 04:50:10;;;;;;;;;4.75;2.00;;;;;17.46;86.75;102881.44;5097751;27;45285;-86
2022/07/08 04:52:35;;;;;;;;;6.25;3.00;;;;;17.46;87.43;102881.44;5097128;27;45760;-86
2022/07/08 04:55:01;;;;;;;;;3.00;2.50;;;;;17.49;87.17;102885.09;5079891;27;45549;-86
2022/07/08 04:57:27;;;;;;;;;3.25;2.50;;;;;17.54;86.61;102885.38;5098850;27;45283;-85
2022/07/08 04:59:52;;;;;;;;;3.25;3.25;;;;;17.57;86.69;102892.47;5097618;27;45167;-84
2022/07/08 05:02:18;;;;;;;;;3.00;2.00;;;;;17.56;86.86;102888.94;5101264;27;46496;-84
2022/07/08 05:04:43;;;;;;;;;2.00;2.00;;;;;17.60;86.54;102898.75;5103289;27;45276;-76
2022/07/08 05:07:09;;;;;;;;;4.75;3.25;;;;;17.62;nan;102896.19;5100196;27;45396;-84
2022/07/08 05:09:34;;;;;;;;;3.50;3.00;;;;;17.65;86.20;102898.97;5097065;27;45326;-86
2022/07/08 05:12:00;;;;;;;;;2.00;2.00;;;;;17.68;85.64;102891.28;5096195;27;45818;-83
2022/07/08 05:14:26;;;;;;;;;4.00;2.25;;;;;17.66;85.51;102898.16;5096626;27;45481;-84
2022/07/08 05:16:51;;;;;;;;;4.75;2.75;;;;;17.68;85.46;102904.38;5096267;27;45334;-85
2022/07/08 05:19:17;;;;;;;;;3.25;3.00;;;;;17.70;85.24;102909.69;5097043;27;45473;-85
2022/07/08 05:21:42;;;;;;;;;4.75;4.00;;;;;17.67;85.38;102910.44;5096823;27;45455;-84
2022/07/08 05:24:08;;;;;;;;;3.25;3.25;;;;;17.67;85.11;102906.91;5096240;27;45351;-85
2022/07/08 05:26:34;;;;;;;;;2.00;2.00;;;;;17.64;85.06;102908.56;5097209;27;45322;-85
2022/07/08 05:29:00;;;;;;;;;2.00;2.00;;;;;17.62;85.43;102901.44;5102620;27;45442;-86
2022/07/08 05:31:26;;;;;;;;;4.00;3.00;;;;;17.64;85.57;102899.78;5100782;27;45454;-86
2022/07/08 05:33:52;;;;;;;;;3.75;2.75;;;;;17.65;85.20;102891.13;5100301;27;45287;-85
2022/07/08 05:36:18;;;;;;;;;4.00;3.75;;;;;17.65;85.34;102901.59;5100154;27;45287;-85
2022/07/08 05:38:43;;;;;;;;;3.50;3.50;;;;;17.66;85.50;102898.16;5100561;27;45671;-77
2022/07/08 05:41:09;;;;;;;;;3.00;3.00;;;;;17.68;85.52;102898.22;5100699;27;45380;-84
2022/07/08 05:43:35;;;;;;;;;3.25;3.00;;;;;17.70;85.25;102904.44;5079857;27;45794;-75
2022/07/08 05:46:01;;;;;;;;;4.50;3.00;;;;;17.74;85.15;102903.78;5078335;28;45449;-77
2022/07/08 05:48:28;;;;;;;;;4.00;3.00;;;;;17.79;85.32;102904.88;5060227;28;45453;-82
2022/07/08 05:50:54;;;;;;;;;4.50;3.00;;;;;17.83;84.70;102905.91;5081991;28;45460;-79
2022/07/08 05:53:20;;;;;;;;;7.50;3.00;;;;;17.86;84.85;102907.00;5078461;27;45301;-81
2022/07/08 05:55:47;;;;;;;;;2.50;2.50;;;;;17.85;84.87;102901.66;5079975;28;45244;-76
2022/07/08 05:58:13;;;;;;;;;7.00;3.00;;;;;17.87;84.68;102903.53;5079327;28;45626;-79
2022/07/08 06:00:39;;;;;;;;;9.00;4.00;;;;;17.89;84.39;102895.75;5078927;28;46104;-75
2022/07/08 06:03:05;;;;;;;;;3.75;3.50;;;;;17.94;84.40;102904.72;5078595;28;45463;-77
2022/07/08 06:05:33;;;;;;;;;4.50;2.75;;;;;17.99;84.00;102899.72;5078880;28;45366;-85
2022/07/08 06:07:59;;;;;;;;;4.25;3.25;;;;;18.01;83.65;102899.00;5083056;27;45647;-84
2022/07/08 06:10:26;;;;;;;;;5.75;3.25;;;;;18.05;83.43;102910.53;5089557;27;45761;-86
2022/07/08 06:12:53;;;;;;;;;6.75;4.00;;;;;18.06;83.15;102902.72;5088819;27;45181;-82
2022/07/08 06:15:19;;;;;;;;;3.25;2.75;;;;;18.07;83.04;102907.16;5084680;27;45798;-84
2022/07/08 06:17:45;;;;;;;;;5.00;4.00;;;;;18.07;82.72;102904.53;5108099;27;45604;-84
2022/07/08 06:20:13;;;;;;;;;4.25;3.75;;;;;18.10;82.99;102907.28;5104348;27;45989;-88
2022/07/08 06:22:39;;;;;;;;;3.00;3.00;;;;;18.13;82.96;102909.16;5111054;27;45112;-96
2022/07/08 06:25:05;;;;;;;;;6.00;3.00;;;;;18.18;83.01;102909.38;5115746;27;45292;-88
2022/07/08 06:27:31;;;;;;;;;3.50;2.00;;;;;18.20;82.00;102908.59;5103079;27;45163;-84
2022/07/08 06:29:57;;;;;;;;;3.75;2.75;;;;;18.24;81.87;102917.53;5083517;27;45460;-82
2022/07/08 06:32:22;;;;;;;;;6.75;3.00;;;;;18.27;81.12;102915.03;5067954;27;45302;-79
2022/07/08 06:34:48;;;;;;;;;3.25;2.50;;;;;18.31;81.23;102922.25;5084969;27;45637;-82
2022/07/08 06:37:14;;;;;;;;;7.00;3.50;;;;;18.34;80.03;102932.88;5078519;27;45647;-78
2022/07/08 06:39:40;;;;;;;;;3.00;3.00;;;;;18.31;79.50;102934.44;5073405;28;47868;-81
2022/07/08 06:42:06;;;;;;;;;3.00;3.00;;;;;18.29;80.05;102929.13;5077776;27;45364;-82
2022/07/08 06:44:31;;;;;;;;;2.75;2.00;;;;;18.33;79.23;102928.47;5080547;27;45451;-83
2022/07/08 06:46:57;;;;;;;;;3.75;2.00;;;;;18.38;78.69;102926.06;5078156;28;45624;-83
2022/07/08 06:49:22;;;;;;;;;4.25;3.00;;;;;18.38;77.65;102918.19;5086673;27;46229;-83
2022/07/08 06:51:48;;;;;;;;;3.75;3.50;;;;;18.43;77.83;102919.28;5083354;27;45482;-82
2022/07/08 06:56:58;;;;;;;;;4.00;4.00;;;;;18.50;77.72;102923.09;5078034;27;45382;-83
2022/07/08 06:59:23;;;;;;;;;4.00;4.00;;;;;18.53;77.41;102926.75;5077935;28;45431;-84
2022/07/08 07:01:49;;;;;;;;;3.00;2.00;;;;;18.58;76.87;102931.31;5077838;28;45336;-82
2022/07/08 07:04:15;;;;;;;;;4.25;3.75;;;;;18.60;76.42;102930.53;5077793;28;45240;-83
2022/07/08 07:06:40;;;;;;;;;3.00;2.50;;;;;18.63;75.91;102930.69;5078465;28;45195;-84
2022/07/08 07:09:06;;;;;;;;;3.75;2.00;;;;;18.65;75.25;102926.41;5080088;27;45561;-84
2022/07/08 07:11:32;;;;;;;;;2.00;2.00;;;;;18.68;74.51;102929.16;5078748;27;45398;-85
2022/07/08 07:13:57;;;;;;;;;8.25;4.50;;;;;18.69;74.84;102930.06;5081476;27;45256;-85
2022/07/08 07:16:23;;;;;;;;;4.50;3.00;;;;;18.72;74.92;102928.47;5085714;28;45458;-84
2022/07/08 07:30:57;;;;;;;;;4.25;3.25;;;;;18.88;73.74;102924.81;5112091;27;45311;-79
2022/07/08 07:33:22;;;;;;;;;6.25;4.00;;;;;18.90;73.36;102922.25;5091955;27;45348;-81
2022/07/08 07:35:48;;;;;;;;;1.75;1.75;;;;;18.94;73.08;102929.47;5093275;27;45332;-81
2022/07/08 07:38:13;;;;;;;;;3.50;3.00;;;;;18.93;72.97;102929.38;5092020;27;45242;-81
2022/07/08 07:40:39;;;;;;;;;4.25;2.75;;;;;18.89;73.40;102930.97;5092005;27;46307;-81
2022/07/08 07:43:04;;;;;;;;;3.00;2.75;;;;;18.88;73.58;102932.69;5087968;27;45932;-81
2022/07/08 07:45:30;;;;;;;;;5.00;1.00;;;;;18.83;73.13;102917.56;5072648;28;45461;-81
2022/07/08 07:47:56;;;;;;;;;3.50;2.50;;;;;18.84;73.69;102922.00;5087402;27;45433;-82
2022/07/08 07:50:21;;;;;;;;;3.75;3.00;;;;;18.88;73.97;102916.06;5092678;27;46054;-81
2022/07/08 07:52:47;;;;;;;;;4.25;4.25;;;;;18.91;74.26;102921.41;5092489;27;45426;-82
2022/07/08 07:55:13;;;;;;;;;3.50;3.00;;;;;18.94;74.46;102926.84;5091756;27;45306;-81
2022/07/08 07:57:39;;;;;;;;;6.50;3.00;;;;;19.01;74.61;102925.41;5093036;27;45343;-78
2022/07/08 08:00:06;;;;;;;;;3.25;1.00;;;;;19.03;73.92;102929.88;5093398;27;45391;-80
2022/07/08 08:02:32;;;;;;;;;4.25;3.00;;;;;19.01;73.49;102928.91;5094104;27;45761;-80
2022/07/08 08:04:58;;;;;;;;;3.50;3.00;;;;;19.03;73.79;102927.25;5090879;27;45555;-80
2022/07/08 08:07:23;;;;;;;;;4.00;3.00;;;;;19.06;73.50;102920.34;5092577;27;45255;-80
2022/07/08 08:09:49;;;;;;;;;5.75;4.00;;;;;19.09;73.79;102921.38;5094444;27;46153;-83
2022/07/08 08:12:14;;;;;;;;;6.25;4.00;;;;;19.12;74.02;102924.13;5106201;27;45351;-80
2022/07/08 08:14:40;;;;;;;;;7.75;5.00;;;;;19.14;73.02;102924.19;5104489;27;45481;-81
2022/07/08 08:17:05;;;;;;;;;5.50;3.25;;;;;19.07;72.77;102917.78;5101487;27;44848;-85
2022/07/08 08:19:31;;;;;;;;;6.00;3.00;;;;;19.11;72.71;102926.72;5107602;27;46211;-86
2022/07/08 08:21:57;;;;;;;;;5.00;4.50;;;;;19.09;72.41;102920.50;5101976;27;45927;-87
2022/07/08 08:24:23;;;;;;;;;3.50;2.00;;;;;19.15;72.60;102929.53;5094329;27;45375;-91
2022/07/08 08:26:48;;;;;;;;;5.50;5.50;;;;;19.14;72.52;102924.19;5097149;27;45571;-90
2022/07/08 08:29:14;;;;;;;;;6.25;6.00;;;;;19.21;72.15;102935.88;5095915;27;46724;-84
2022/07/08 08:31:40;;;;;;;;;7.50;5.25;;;;;19.23;72.55;102926.31;5083705;27;45413;-91
2022/07/08 08:34:05;;;;;;;;;7.75;6.00;;;;;19.25;71.94;102922.94;5082138;27;45488;-90
2022/07/08 08:36:31;;;;;;;;;5.00;5.00;;;;;19.24;71.42;102920.25;5082790;27;45327;-91
2022/07/08 08:38:56;;;;;;;;;6.00;6.00;;;;;19.22;72.22;102921.91;5081611;28;46270;-94
2022/07/08 08:41:23;;;;;;;;;7.00;7.00;;;;;19.25;72.00;102912.41;5081087;27;45384;-93
2022/07/08 08:43:49;;;;;;;;;8.50;5.00;;;;;19.33;71.83;102918.00;5086440;27;45285;-84
2022/07/08 08:46:20;;;;;;;;;5.25;5.25;;;;;19.34;71.75;102911.94;5081343;28;45261;-83
2022/07/08 08:48:47;;;;;;;;;6.50;6.00;;;;;19.29;70.88;102905.56;5079153;27;46179;-84
2022/07/08 08:51:17;;;;;;;;;8.75;7.00;;;;;19.36;71.09;102906.72;5076407;28;45356;-82
2022/07/08 08:53:45;;;;;;;;;9.50;6.00;;;;;19.39;70.75;102902.50;5078345;27;45431;-80
2022/07/08 08:56:16;;;;;;;;;6.75;6.00;;;;;19.46;71.49;102908.91;5078261;28;45313;-82
2022/07/08 08:58:48;;;;;;;;;6.00;5.00;;;;;19.44;70.60;102900.06;5077887;27;45926;-85
2022/07/08 09:01:15;;;;;;;;;9.25;6.75;;;;;19.45;70.74;102894.88;5078052;27;45358;-81
2022/07/08 09:03:42;;;;;;;;;7.00;6.00;;;;;19.46;69.63;102895.75;5078147;27;45554;-81
2022/07/08 09:06:07;;;;;;;;;7.75;7.75;;;;;19.45;69.62;102896.59;5078302;27;45453;-84
2022/07/08 09:08:35;;;;;;;;;7.00;6.25;;;;;19.48;68.64;102891.47;5077518;28;46502;-82
2022/07/08 09:11:01;;;;;;;;;7.25;6.50;;;;;19.48;69.18;102878.34;5076837;27;45802;-81
2022/07/08 09:13:26;;;;;;;;;12.00;8.00;;;;;19.50;69.42;102879.31;5076065;27;45510;-81
2022/07/08 09:15:59;;;;;;;;;7.00;7.00;;;;;19.59;69.10;102881.44;5078126;27;45824;-81
2022/07/08 09:18:29;;;;;;;;;7.75;6.75;;;;;19.63;68.32;102884.25;5076349;28;48031;-81
2022/07/08 09:20:56;;;;;;;;;10.25;8.00;;;;;19.66;68.00;102880.81;5076685;27;45484;-84
2022/07/08 09:23:24;;;;;;;;;7.00;6.00;;;;;19.69;66.37;102883.59;5077486;27;45278;-86
2022/07/08 09:25:52;;;;;;;;;7.50;7.00;;;;;19.73;66.33;102879.34;5076728;28;45516;-82
2022/07/08 09:28:35;;;;;;;;;6.25;6.25;;;;;19.76;65.21;102877.72;5079562;27;45529;-84
2022/07/08 09:31:06;;;;;;;;;8.00;6.75;;;;;19.75;65.80;102875.06;5082990;28;45778;-84
2022/07/08 09:33:33;;;;;;;;;6.50;6.00;;;;;19.78;67.02;102878.69;5078789;27;45404;-83
2022/07/08 09:36:01;;;;;;;;;9.00;5.75;;;;;19.85;67.15;102878.94;5077734;28;45516;-84
2022/07/08 09:38:29;;;;;;;;;7.50;5.00;;;;;19.88;66.69;102868.56;5073774;28;46169;-81
2022/07/08 09:40:59;;;;;;;;;6.75;5.50;;;;;19.91;66.25;102866.97;5075545;28;45609;-79
2022/07/08 09:43:26;;;;;;;;;8.00;6.75;;;;;19.97;64.84;102870.69;5074190;28;45495;-78
2022/07/08 09:45:52;;;;;;;;;9.75;8.00;;;;;19.98;64.79;102857.59;5077407;27;45484;-83
2022/07/08 09:48:18;;;;;;;;;7.50;6.25;;;;;20.06;64.68;102864.03;5075992;28;45621;-84
2022/07/08 09:50:48;;;;;;;;;7.00;6.50;;;;;20.12;65.03;102865.13;5074335;28;45306;-80
2022/07/08 09:53:18;;;;;;;;;7.00;5.75;;;;;20.14;63.92;102860.81;5078015;27;45414;-84
2022/07/08 09:55:51;;;;;;;;;7.25;6.00;;;;;20.21;63.40;102860.19;5077785;28;45460;-82
2022/07/08 09:58:19;;;;;;;;;7.50;6.75;;;;;20.22;63.60;102862.00;5056876;28;46834;-81
2022/07/08 10:00:45;;;;;;;;;8.75;7.75;;;;;20.23;63.79;102859.41;5072429;28;45559;-80
2022/07/08 10:03:11;;;;;;;;;8.00;6.00;;;;;20.28;63.66;102863.97;5076464;27;45601;-82
2022/07/08 10:05:38;;;;;;;;;8.25;7.00;;;;;20.43;62.17;102856.63;5075750;28;45338;-84
2022/07/08 10:08:04;;;;;;;;;3.50;3.50;;;;;20.65;59.71;102858.31;5076768;28;45600;-84
2022/07/08 10:10:32;;;;;;;;;6.00;4.25;;;;;20.79;57.02;102856.19;5078671;27;45570;-83
2022/07/08 10:12:58;;;;;;;;;6.75;5.00;;;;;20.97;57.85;102866.47;5082610;27;45281;-83
2022/07/08 10:15:30;;;;;;;;;6.00;5.25;;;;;20.98;56.79;102841.94;5078985;28;45299;-83
2022/07/08 10:18:06;;;;;;;;;6.50;4.25;;;;;21.12;56.97;102847.66;5075436;28;47450;-83
2022/07/08 10:20:35;;;;;;;;;6.00;5.00;;;;;21.20;57.57;102847.94;5072065;28;45268;-82
2022/07/08 10:23:15;;;;;;;;;7.75;6.00;;;;;21.23;58.00;102844.50;5069197;28;45400;-84
2022/07/08 10:25:42;;;;;;;;;6.00;6.00;;;;;21.26;57.65;102845.47;5076374;28;45507;-80
2022/07/08 10:28:10;;;;;;;;;8.50;6.25;;;;;21.29;56.89;102858.78;5076382;27;45464;-86
2022/07/08 10:30:52;;;;;;;;;7.00;6.00;;;;;21.25;57.18;102856.88;5077827;27;45478;-89
2022/07/08 10:33:26;;;;;;;;;5.00;5.00;;;;;21.23;56.30;102857.66;5067119;28;45250;-88
2022/07/08 10:36:05;;;;;;;;;6.25;4.75;;;;;21.25;56.20;102850.72;5084473;27;45275;-91
2022/07/08 10:38:43;;;;;;;;;7.25;5.00;;;;;21.21;56.47;102847.09;5080621;28;46957;-90
2022/07/08 10:41:11;;;;;;;;;5.75;4.75;;;;;21.19;56.03;102843.50;5076341;28;45804;-84
2022/07/08 10:43:54;;;;;;;;;9.25;5.00;;;;;21.24;55.42;102849.81;5076881;27;45235;-81
2022/07/08 10:46:29;;;;;;;;;5.50;4.75;;;;;21.27;54.95;102846.41;5076617;28;45450;-85
2022/07/08 10:48:57;;;;;;;;;3.75;2.75;;;;;21.28;53.04;102843.81;5075898;28;46784;-79
2022/07/08 10:51:24;;;;;;;;;4.75;3.00;;;;;21.34;53.63;102848.38;5077624;28;45735;-86
2022/07/08 10:53:54;;;;;;;;;6.75;3.00;;;;;21.30;53.54;102835.94;5076291;28;45540;-81
2022/07/08 10:57:00;;;;;;;;;6.00;4.00;;;;;21.34;52.93;102853.66;5085013;27;45297;-85
2022/07/08 10:59:35;;;;;;;;;4.50;4.00;;;;;21.37;53.52;102851.13;5078879;28;47865;-87
2022/07/08 11:02:09;;;;;;;;;2.25;2.25;;;;;21.41;51.73;102847.72;5077779;27;45237;-87
2022/07/08 11:04:34;;;;;;;;;7.00;2.00;;;;;21.44;52.10;102846.91;5076448;28;45314;-86
2022/07/08 11:07:23;;;;;;;;;3.25;2.00;;;;;21.45;52.14;102844.34;5076718;28;45700;-89
2022/07/08 11:10:06;;;;;;;;;2.00;2.00;;;;;21.47;51.91;102844.41;5077938;27;45416;-86
2022/07/08 11:12:45;;;;;;;;;5.00;4.00;;;;;21.48;52.71;102831.28;5077606;27;45309;-86
2022/07/08 11:15:11;;;;;;;;;4.50;3.50;;;;;21.55;53.67;102844.66;5077059;27;45309;-86
2022/07/08 11:17:40;;;;;;;;;3.75;3.00;;;;;21.56;53.71;102826.22;5078981;27;45315;-88
2022/07/08 11:20:11;;;;;;;;;2.00;2.00;;;;;21.63;52.84;102846.72;5076598;28;47514;-88
2022/07/08 11:22:38;;;;;;;;;5.25;4.50;;;;;21.64;52.34;102832.69;5077604;27;45444;-87
2022/07/08 11:25:06;;;;;;;;;2.75;2.00;;;;;21.76;52.44;102839.16;5076448;28;45417;-86
2022/07/08 11:27:33;;;;;;;;;2.00;2.00;;;;;21.75;51.49;102824.22;5084255;27;45552;-82
2022/07/08 11:29:59;;;;;;;;;3.00;2.00;;;;;21.81;49.53;102837.59;5086262;28;47121;-87
2022/07/08 11:32:27;;;;;;;;;1.00;1.00;;;;;21.87;50.08;102842.16;5086696;27;46360;-84
2022/07/08 11:34:54;;;;;;;;;3.00;2.25;;;;;21.82;49.49;102825.28;5078393;27;45340;-86
2022/07/08 11:37:22;;;;;;;;;3.25;2.25;;;;;21.87;48.39;102821.94;5078749;28;45578;-84
2022/07/08 11:39:48;;;;;;;;;3.00;3.00;;;;;21.94;48.37;102825.66;5082757;27;45243;-83
2022/07/08 11:42:15;;;;;;;;;2.50;2.00;;;;;21.92;48.82;102816.81;5081906;27;45599;-84